createdAt,value
2022-12-03T00:01:38.034Z,102115.53
2022-12-03T00:04:40.389Z,102106.94
2022-12-03T00:07:43.063Z,102107.84
2022-12-03T00:10:45.367Z,102102.38
2022-12-03T00:13:48.762Z,102107.69
2022-12-03T00:16:51.118Z,102100.31
2022-12-03T00:19:53.900Z,102100.31
2022-12-03T00:22:56.252Z,102082.31
2022-12-03T00:25:58.942Z,102085.81
2022-12-03T00:29:01.303Z,102085.72
2022-12-03T00:32:03.958Z,102088.88
2022-12-03T00:35:06.835Z,102076.06
2022-12-03T00:38:09.525Z,102081.03
2022-12-03T00:41:12.314Z,102076.06
2022-12-03T00:44:15.149Z,102078.56
2022-12-03T00:47:17.496Z,102077.31
2022-12-03T00:50:20.118Z,102077.53
2022-12-03T00:53:22.416Z,102081.41
2022-12-03T00:56:25.321Z,102075.47
2022-12-03T00:59:27.878Z,102069.88
2022-12-03T01:02:30.518Z,102072.75
2022-12-03T01:05:32.931Z,102063.28
2022-12-03T01:08:35.733Z,102071.31
2022-12-03T01:11:38.044Z,102062.69
2022-12-03T01:14:40.953Z,102069.13
2022-12-03T01:17:43.324Z,102070.47
2022-12-03T01:20:45.979Z,102053.97
2022-12-03T01:23:48.755Z,102058.88
2022-12-03T01:26:51.461Z,102060.00
2022-12-03T01:29:53.866Z,102069.94
2022-12-03T01:32:56.532Z,102063.38
2022-12-03T01:35:58.855Z,102061.75
2022-12-03T01:39:02.475Z,102058.34
2022-12-03T01:42:07.449Z,102055.63
2022-12-03T01:45:21.314Z,102052.50
2022-12-03T01:48:23.698Z,102058.03
2022-12-03T01:51:26.389Z,102058.25
2022-12-03T01:54:37.322Z,102050.69
2022-12-03T01:57:46.704Z,102051.91
2022-12-03T02:00:49.166Z,102044.53
2022-12-03T02:03:51.994Z,102044.75
2022-12-03T02:06:54.499Z,102038.28
2022-12-03T02:09:59.453Z,102026.19
2022-12-03T02:13:07.601Z,102048.13
2022-12-03T02:16:10.723Z,102044.63
2022-12-03T02:19:25.941Z,102046.59
2022-12-03T02:22:47.196Z,102055.63
2022-12-03T02:25:49.527Z,102059.94
2022-12-03T02:28:52.224Z,102057.03
2022-12-03T02:31:54.658Z,102060.75
2022-12-03T02:34:57.357Z,102049.47
2022-12-03T02:38:04.710Z,102067.47
2022-12-03T02:41:09.849Z,102064.66
2022-12-03T02:44:13.124Z,102059.94
2022-12-03T02:47:16.110Z,102060.63
2022-12-03T02:50:23.314Z,102061.66
2022-12-03T02:53:36.280Z,102054.22
2022-12-03T02:56:38.675Z,102056.81
2022-12-03T02:59:41.358Z,102058.50
2022-12-03T03:02:45.410Z,102055.91
2022-12-03T03:05:48.788Z,102049.66
2022-12-03T03:08:51.566Z,102052.28
2022-12-03T03:11:54.233Z,102062.66
2022-12-03T03:14:56.621Z,102048.84
2022-12-03T03:17:59.272Z,102039.44
2022-12-03T03:21:01.804Z,102052.72
2022-12-03T03:24:05.571Z,102045.28
2022-12-03T03:27:08.052Z,102048.94
2022-12-03T03:30:12.398Z,102035.94
2022-12-03T03:33:16.165Z,102041.78
2022-12-03T03:36:19.863Z,102019.59
2022-12-03T03:39:22.291Z,102046.16
2022-12-03T03:42:25.309Z,102044.75
2022-12-03T03:45:29.600Z,102044.47
2022-12-03T03:48:34.764Z,102047.59
2022-12-03T03:51:37.858Z,102054.16
2022-12-03T03:54:40.471Z,102040.44
2022-12-03T03:57:42.804Z,102038.72
2022-12-03T04:00:45.837Z,102034.19
2022-12-03T04:03:48.309Z,102041.69
2022-12-03T04:06:51.141Z,102038.19
2022-12-03T04:09:53.439Z,102042.13
2022-12-03T04:12:56.039Z,102037.00
2022-12-03T04:15:58.377Z,102031.88
2022-12-03T04:19:01.094Z,102033.66
2022-12-03T04:22:21.995Z,102028.44
2022-12-03T04:25:43.173Z,102028.28
2022-12-03T04:28:51.540Z,102024.28
2022-12-03T04:32:12.783Z,102036.53
2022-12-03T04:35:33.515Z,102036.91
2022-12-03T04:38:36.231Z,102033.28
2022-12-03T04:41:38.539Z,102037.00
2022-12-03T04:44:41.342Z,102022.63
2022-12-03T04:47:44.809Z,102017.41
2022-12-03T04:50:47.556Z,102014.56
2022-12-03T04:53:49.902Z,102014.44
2022-12-03T04:56:52.567Z,102019.50
2022-12-03T04:59:54.908Z,102013.16
2022-12-03T05:02:57.733Z,102008.91
2022-12-03T05:06:00.285Z,102017.78
2022-12-03T05:09:03.667Z,102011.56
2022-12-03T05:12:06.214Z,102017.16
2022-12-03T05:15:09.309Z,102016.56
2022-12-03T05:18:11.643Z,102019.72
2022-12-03T05:21:14.335Z,102011.28
2022-12-03T05:24:16.631Z,102015.31
2022-12-03T05:27:23.713Z,102002.44
2022-12-03T05:30:26.676Z,102004.31
2022-12-03T05:33:29.509Z,101996.47
2022-12-03T05:36:31.969Z,102006.41
2022-12-03T05:39:34.636Z,101999.00
2022-12-03T05:42:55.007Z,101999.16
2022-12-03T05:45:57.732Z,101996.78
2022-12-03T05:49:00.377Z,102000.06
2022-12-03T05:52:03.298Z,101998.41
2022-12-03T05:55:06.655Z,102000.97
2022-12-03T05:58:09.541Z,102000.97
2022-12-03T06:01:12.735Z,101998.19
2022-12-03T06:04:15.502Z,102006.34
2022-12-03T06:07:17.792Z,101990.50
2022-12-03T06:10:23.436Z,101977.50
2022-12-03T06:13:25.783Z,101998.41
2022-12-03T06:16:28.520Z,102006.34
2022-12-03T06:19:31.769Z,101998.53
2022-12-03T06:22:34.498Z,101998.41
2022-12-03T06:25:36.885Z,101992.97
2022-12-03T06:28:39.627Z,101997.56
2022-12-03T06:31:42.036Z,101998.16
2022-12-03T06:34:44.704Z,102000.06
2022-12-03T06:37:47.027Z,101999.59
2022-12-03T06:40:49.625Z,102004.81
2022-12-03T06:43:51.889Z,102005.63
2022-12-03T06:46:54.667Z,102006.81
2022-12-03T06:49:57.093Z,102012.88
2022-12-03T06:52:59.865Z,102010.47
2022-12-03T06:56:02.275Z,102014.72
2022-12-03T06:59:04.980Z,102019.94
2022-12-03T07:02:07.371Z,102014.28
2022-12-03T07:05:10.189Z,102017.53
2022-12-03T07:08:12.613Z,102025.59
2022-12-03T07:11:33.656Z,102017.34
2022-12-03T07:14:36.060Z,102024.44
2022-12-03T07:17:38.759Z,102015.75
2022-12-03T07:20:41.245Z,102025.38
2022-12-03T07:23:44.077Z,102021.91
2022-12-03T07:26:46.463Z,102018.41
2022-12-03T07:29:49.188Z,102026.41
2022-12-03T07:32:51.750Z,102008.56
2022-12-03T07:35:54.530Z,102012.97
2022-12-03T07:38:56.904Z,102017.41
2022-12-03T07:41:59.982Z,102009.19
2022-12-03T07:45:02.366Z,101994.91
2022-12-03T07:48:05.222Z,102002.34
2022-12-03T07:51:08.828Z,101997.84
2022-12-03T07:54:13.121Z,101998.75
2022-12-03T07:57:15.601Z,101997.13
2022-12-03T08:00:20.098Z,101994.22
2022-12-03T08:03:22.379Z,101998.75
2022-12-03T08:06:25.095Z,102000.53
2022-12-03T08:09:27.456Z,102003.25
2022-12-03T08:12:40.455Z,101989.41
2022-12-03T08:15:49.644Z,101995.13
2022-12-03T08:18:55.124Z,101977.66
2022-12-03T08:22:01.198Z,101988.09
2022-12-03T08:25:10.268Z,101979.06
2022-12-03T08:28:17.106Z,101993.31
2022-12-03T08:31:27.971Z,101982.28
2022-12-03T08:34:41.311Z,101996.94
2022-12-03T08:37:44.067Z,101995.22
2022-12-03T08:40:47.527Z,101988.19
2022-12-03T08:43:50.248Z,101999.44
2022-12-03T08:47:04.598Z,101994.94
2022-12-03T08:50:27.589Z,101993.63
2022-12-03T08:53:46.765Z,101999.28
2022-12-03T08:56:49.593Z,101997.44
2022-12-03T08:59:58.632Z,101992.63
2022-12-03T09:03:01.619Z,102006.59
2022-12-03T09:06:04.190Z,102003.78
2022-12-03T09:09:07.081Z,101996.91
2022-12-03T09:12:09.645Z,101988.31
2022-12-03T09:15:12.404Z,101986.47
2022-12-03T09:18:14.888Z,101979.16
2022-12-03T09:21:17.693Z,101978.75
2022-12-03T09:24:26.349Z,101977.56
2022-12-03T09:27:29.108Z,101996.03
2022-12-03T09:30:34.618Z,101978.34
2022-12-03T09:33:37.434Z,101966.25
2022-12-03T09:36:39.879Z,101971.81
2022-12-03T09:39:43.048Z,101955.31
2022-12-03T09:42:45.667Z,101960.22
2022-12-03T09:45:49.902Z,101949.47
2022-12-03T09:48:52.714Z,101964.53
2022-12-03T09:52:01.419Z,101956.63
2022-12-03T09:55:14.357Z,101952.28
2022-12-03T09:58:24.498Z,101963.56
2022-12-03T10:01:30.639Z,101956.50
2022-12-03T10:04:33.655Z,101954.69
2022-12-03T10:07:36.117Z,101946.03
2022-12-03T10:10:42.493Z,101949.44
2022-12-03T10:13:44.954Z,101952.16
2022-12-03T10:16:47.761Z,101937.47
2022-12-03T10:19:50.174Z,101944.09
2022-12-03T10:22:52.805Z,101934.16
2022-12-03T10:25:59.520Z,101941.06
2022-12-03T10:29:02.270Z,101944.47
2022-12-03T10:32:07.868Z,101938.72
2022-12-03T10:35:20.230Z,101929.56
2022-12-03T10:38:24.693Z,101941.22
2022-12-03T10:41:28.864Z,101930.78
2022-12-03T10:44:31.157Z,101945.41
2022-12-03T10:47:34.086Z,101937.28
2022-12-03T10:50:37.595Z,101933.72
2022-12-03T10:53:43.881Z,101926.88
2022-12-03T10:56:47.456Z,101929.03
2022-12-03T10:59:50.252Z,101914.25
2022-12-03T11:02:56.687Z,101928.50
2022-12-03T11:06:03.780Z,101930.16
2022-12-03T11:09:16.969Z,101921.72
2022-12-03T11:12:28.374Z,101922.28
2022-12-03T11:15:45.165Z,101910.47
2022-12-03T11:18:50.900Z,101920.56
2022-12-03T11:22:05.613Z,101917.25
2022-12-03T11:25:26.943Z,101920.38
2022-12-03T11:28:34.278Z,101913.19
2022-12-03T11:31:48.124Z,101902.19
2022-12-03T11:34:50.904Z,101916.25
2022-12-03T11:37:53.688Z,101922.22
2022-12-03T11:41:12.867Z,101906.03
2022-12-03T11:44:37.070Z,101912.28
2022-12-03T11:47:45.387Z,101926.19
2022-12-03T11:50:52.487Z,101924.84
2022-12-03T11:53:57.713Z,101911.66
2022-12-03T11:57:00.600Z,101906.78
2022-12-03T12:00:08.503Z,101899.13
2022-12-03T12:03:26.650Z,101898.56
2022-12-03T12:06:29.424Z,101896.03
2022-12-03T12:09:53.748Z,101891.13
2022-12-03T12:12:57.539Z,101877.25
2022-12-03T12:16:02.190Z,101888.97
2022-12-03T12:19:40.101Z,101899.53
2022-12-03T12:22:43.024Z,101890.41
2022-12-03T12:25:52.478Z,101883.00
2022-12-03T12:28:56.900Z,101880.50
2022-12-03T12:32:12.699Z,101892.41
2022-12-03T12:35:17.289Z,101874.81
2022-12-03T12:38:21.143Z,101885.91
2022-12-03T12:41:24.520Z,101872.56
2022-12-03T12:44:27.735Z,101867.44
2022-12-03T12:47:30.843Z,101877.69
2022-12-03T12:50:33.484Z,101863.53
2022-12-03T12:53:37.769Z,101875.78
2022-12-03T12:56:42.671Z,101883.91
2022-12-03T12:59:45.550Z,101878.69
2022-12-03T13:02:54.245Z,101871.13
2022-12-03T13:05:57.881Z,101883.09
2022-12-03T13:09:02.976Z,101883.53
2022-12-03T13:12:09.411Z,101880.69
2022-12-03T13:15:32.835Z,101882.22
2022-12-03T13:18:42.958Z,101877.13
2022-12-03T13:21:45.940Z,101881.91
2022-12-03T13:24:53.512Z,101869.63
2022-12-03T13:27:56.143Z,101883.41
2022-12-03T13:31:25.368Z,101885.13
2022-12-03T13:34:32.743Z,101885.41
2022-12-03T13:37:35.982Z,101893.34
2022-12-03T13:40:38.679Z,101883.03
2022-12-03T13:43:44.460Z,101890.00
2022-12-03T13:46:47.364Z,101885.84
2022-12-03T13:49:54.081Z,101888.34
2022-12-03T13:52:57.068Z,101885.09
2022-12-03T13:56:21.552Z,101892.94
2022-12-03T13:59:26.307Z,101880.50
2022-12-03T14:02:29.351Z,101883.28
2022-12-03T14:05:31.828Z,101886.91
2022-12-03T14:08:34.510Z,101887.09
2022-12-03T14:11:57.725Z,101891.50
2022-12-03T14:15:02.160Z,101887.22
2022-12-03T14:18:04.914Z,101886.31
2022-12-03T14:21:07.674Z,101878.16
2022-12-03T14:24:10.117Z,101876.31
2022-12-03T14:27:12.845Z,101876.31
2022-12-03T14:30:15.330Z,101874.59
2022-12-03T14:33:18.046Z,101874.06
2022-12-03T14:36:20.381Z,101869.72
2022-12-03T14:39:23.237Z,101890.84
2022-12-03T14:42:25.667Z,101892.31
2022-12-03T14:45:30.099Z,101893.03
2022-12-03T14:48:32.484Z,101896.31
2022-12-03T14:51:35.203Z,101895.41
2022-12-03T14:54:39.412Z,101889.25
2022-12-03T14:57:42.142Z,101894.41
2022-12-03T15:00:44.514Z,101889.00
2022-12-03T15:03:47.284Z,101897.09
2022-12-03T15:06:50.120Z,101886.63
2022-12-03T15:09:53.172Z,101893.94
2022-12-03T15:12:55.895Z,101902.09
2022-12-03T15:15:59.047Z,101905.25
2022-12-03T15:19:01.820Z,101911.28
2022-12-03T15:22:04.602Z,101908.94
2022-12-03T15:25:08.063Z,101916.69
2022-12-03T15:28:11.114Z,101918.78
2022-12-03T15:31:13.677Z,101914.91
2022-12-03T15:34:22.128Z,101917.88
2022-12-03T15:37:27.896Z,101917.44
2022-12-03T15:40:30.662Z,101915.91
2022-12-03T15:43:33.328Z,101910.41
2022-12-03T15:46:36.347Z,101919.59
2022-12-03T15:49:39.086Z,101919.06
2022-12-03T15:52:42.097Z,101915.09
2022-12-03T15:55:44.665Z,101923.78
2022-12-03T15:58:47.922Z,101921.47
2022-12-03T16:01:50.908Z,101926.00
2022-12-03T16:04:54.179Z,101925.09
2022-12-03T16:07:57.077Z,101929.44
2022-12-03T16:11:02.379Z,101924.19
2022-12-03T16:14:05.131Z,101926.38
2022-12-03T16:17:07.913Z,101927.00
2022-12-03T16:20:10.601Z,101924.50
2022-12-03T16:23:16.547Z,101931.78
2022-12-03T16:26:22.179Z,101930.38
2022-12-03T16:29:25.755Z,101929.28
2022-12-03T16:32:28.355Z,101938.13
2022-12-03T16:35:31.681Z,101941.75
2022-12-03T16:38:34.889Z,101941.09
2022-12-03T16:41:40.304Z,101937.84
2022-12-03T16:45:12.442Z,101943.69
2022-12-03T16:48:15.882Z,101943.25
2022-12-03T16:51:22.101Z,101942.53
2022-12-03T16:54:25.345Z,101936.41
2022-12-03T16:57:33.456Z,101946.53
2022-12-03T17:00:36.949Z,101939.50
2022-12-03T17:03:39.583Z,101937.19
2022-12-03T17:06:42.442Z,101928.44
2022-12-03T17:09:44.960Z,101929.00
2022-12-03T17:13:08.761Z,101932.94
2022-12-03T17:16:15.417Z,101930.41
2022-12-03T17:19:18.829Z,101933.44
2022-12-03T17:22:22.202Z,101937.47
2022-12-03T17:25:25.664Z,101933.94
2022-12-03T17:28:29.602Z,101931.16
2022-12-03T17:31:38.415Z,101930.97
2022-12-03T17:34:58.832Z,101932.34
2022-12-03T17:38:04.941Z,101923.78
2022-12-03T17:41:11.666Z,101929.91
2022-12-03T17:44:19.383Z,101928.66
2022-12-03T17:47:24.052Z,101929.28
2022-12-03T17:50:49.099Z,101925.50
2022-12-03T17:53:54.176Z,101927.66
2022-12-03T17:57:00.624Z,101909.50
2022-12-03T18:00:04.507Z,101916.03
2022-12-03T18:03:15.482Z,101905.38
2022-12-03T18:06:18.152Z,101909.44
2022-12-03T18:09:20.955Z,101904.47
2022-12-03T18:12:23.547Z,101900.75
2022-12-03T18:15:26.860Z,101897.03
2022-12-03T18:18:29.641Z,101888.16
2022-12-03T18:21:32.620Z,101887.97
2022-12-03T18:24:37.465Z,101883.00
2022-12-03T18:27:40.819Z,101881.22
2022-12-03T18:30:49.149Z,101885.91
2022-12-03T18:33:56.110Z,101897.28
2022-12-03T18:36:58.726Z,101907.13
2022-12-03T18:40:12.183Z,101924.72
2022-12-03T18:43:17.768Z,101938.88
2022-12-03T18:49:44.778Z,101906.28
2022-12-03T18:52:47.860Z,101914.88
2022-12-03T18:55:51.079Z,101940.53
2022-12-03T18:58:54.430Z,101936.44
2022-12-03T19:01:57.350Z,101915.47
2022-12-03T19:05:00.763Z,101934.13
2022-12-03T19:08:04.581Z,101916.47
2022-12-03T19:11:15.112Z,101922.53
2022-12-03T19:14:18.400Z,101934.00
2022-12-03T19:17:22.003Z,101933.53
2022-12-03T19:20:24.805Z,101922.34
2022-12-03T19:23:27.923Z,101927.03
2022-12-03T19:26:31.386Z,101920.38
2022-12-03T19:29:35.157Z,101919.59
2022-12-03T19:32:38.702Z,101919.97
2022-12-03T19:35:42.481Z,101924.25
2022-12-03T19:38:53.486Z,101915.44
2022-12-03T19:41:59.943Z,101924.38
2022-12-03T19:45:03.120Z,101935.31
2022-12-03T19:48:06.968Z,101935.19
2022-12-03T19:51:33.128Z,101933.06
2022-12-03T19:54:34.374Z,101939.66
2022-12-03T19:57:38.125Z,101933.16
2022-12-03T20:00:45.037Z,101933.72
2022-12-03T20:03:50.124Z,101928.81
2022-12-03T20:06:55.541Z,101925.31
2022-12-03T20:09:58.942Z,101924.19
2022-12-03T20:13:02.741Z,101924.75
2022-12-03T20:16:07.346Z,101918.66
2022-12-03T20:19:13.748Z,101883.09
2022-12-03T20:22:19.370Z,101909.31
2022-12-03T20:25:24.354Z,101912.28
2022-12-03T20:28:42.751Z,101920.28
2022-12-03T20:31:47.484Z,101908.47
2022-12-03T20:34:50.865Z,101907.69
2022-12-03T20:37:55.677Z,101920.50
2022-12-03T20:41:07.365Z,101905.44
2022-12-03T20:44:14.560Z,101925.75
2022-12-03T20:47:17.964Z,101922.13
2022-12-03T20:50:20.822Z,101923.44
2022-12-03T20:53:25.418Z,101939.63
2022-12-03T20:56:31.945Z,101923.91
2022-12-03T20:59:34.557Z,101931.41
2022-12-03T21:02:38.719Z,101936.41
2022-12-03T21:05:43.124Z,101932.47
2022-12-03T21:08:46.637Z,101947.09
2022-12-03T21:11:49.661Z,101944.41
2022-12-03T21:14:53.035Z,101934.22
2022-12-03T21:17:56.260Z,101933.81
2022-12-03T21:21:02.225Z,101931.59
2022-12-03T21:24:12.088Z,101925.69
2022-12-03T21:27:21.198Z,101935.28
2022-12-03T21:30:24.579Z,101928.22
2022-12-03T21:33:29.954Z,101929.63
2022-12-03T21:36:33.070Z,101934.47
2022-12-03T21:39:36.042Z,101932.50
2022-12-03T21:42:39.027Z,101926.53
2022-12-03T21:45:43.979Z,101939.53
2022-12-03T21:48:48.793Z,101938.69
2022-12-03T21:51:51.643Z,101925.91
2022-12-03T21:54:54.778Z,101943.63
2022-12-03T21:57:59.479Z,101945.41
2022-12-03T22:01:02.209Z,101941.16
2022-12-03T22:04:05.780Z,101941.97
2022-12-03T22:07:08.309Z,101935.56
2022-12-03T22:10:12.059Z,101925.34
2022-12-03T22:13:14.748Z,101922.97
2022-12-03T22:16:20.584Z,101920.41
2022-12-03T22:19:23.824Z,101930.50
2022-12-03T22:22:26.610Z,101924.25
2022-12-03T22:25:30.763Z,101924.38
2022-12-03T22:28:34.746Z,101924.25
2022-12-03T22:31:37.247Z,101921.56
2022-12-03T22:34:41.968Z,101898.72
2022-12-03T22:37:44.361Z,101914.84
2022-12-03T22:40:47.395Z,101927.00
2022-12-03T22:43:50.382Z,101923.13
2022-12-03T22:46:53.350Z,101921.00
2022-12-03T22:49:56.097Z,101917.09
2022-12-03T22:52:59.177Z,101930.22
2022-12-03T22:56:01.642Z,101920.81
2022-12-03T22:59:05.298Z,101917.19
2022-12-03T23:02:16.116Z,101914.13
2022-12-03T23:05:19.425Z,101910.88
2022-12-03T23:08:25.800Z,101908.72
2022-12-03T23:11:30.306Z,101913.56
2022-12-03T23:14:33.579Z,101899.97
2022-12-03T23:17:39.484Z,101909.84
2022-12-03T23:20:52.000Z,101904.53
2022-12-03T23:23:59.061Z,101915.09
2022-12-03T23:27:03.238Z,101913.13
2022-12-03T23:30:08.667Z,101917.22
2022-12-03T23:33:12.950Z,101922.38
2022-12-03T23:36:31.085Z,101909.41
2022-12-03T23:39:42.753Z,101904.41
2022-12-03T23:42:46.771Z,101899.59
2022-12-03T23:45:55.348Z,101895.88
2022-12-03T23:49:07.447Z,101896.78
2022-12-03T23:52:14.191Z,101893.41
2022-12-03T23:55:18.836Z,101898.50
2022-12-03T23:58:27.042Z,101897.75
